sensor_id;sensor_type;location;lat;lon;timestamp;pressure;altitude;pressure_sealevel;temperature;humidity
73016;BME280;61893;50.074;14.440;2022-09-06T00:00:37;98996.44;;;18.40;70.61
73016;BME280;61893;50.074;14.440;2022-09-06T00:03:03;98996.94;;;18.29;70.65
73016;BME280;61893;50.074;14.440;2022-09-06T00:05:30;98996.78;;;18.16;71.11
73016;BME280;61893;50.074;14.440;2022-09-06T00:08:03;98998.09;;;18.20;71.08
73016;BME280;61893;50.074;14.440;2022-09-06T00:10:30;98991.00;;;18.19;71.49
73016;BME280;61893;50.074;14.440;2022-09-06T00:13:00;98991.81;;;17.98;72.28
73016;BME280;61893;50.074;14.440;2022-09-06T00:15:26;98988.91;;;18.14;71.56
73016;BME280;61893;50.074;14.440;2022-09-06T00:17:52;98985.91;;;18.24;71.47
73016;BME280;61893;50.074;14.440;2022-09-06T00:20:18;98982.66;;;18.14;71.89
73016;BME280;61893;50.074;14.440;2022-09-06T00:22:43;98983.41;;;18.08;72.34
73016;BME280;61893;50.074;14.440;2022-09-06T00:25:09;98987.56;;;18.25;71.87
73016;BME280;61893;50.074;14.440;2022-09-06T00:27:35;98994.28;;;18.14;72.13
73016;BME280;61893;50.074;14.440;2022-09-06T00:30:02;98981.22;;;18.33;71.39
73016;BME280;61893;50.074;14.440;2022-09-06T00:32:30;98974.56;;;17.92;73.29
73016;BME280;61893;50.074;14.440;2022-09-06T00:34:56;98970.00;;;17.93;73.22
73016;BME280;61893;50.074;14.440;2022-09-06T00:37:22;98962.16;;;18.13;72.55
73016;BME280;61893;50.074;14.440;2022-09-06T00:39:48;98973.69;;;18.28;71.41
73016;BME280;61893;50.074;14.440;2022-09-06T00:42:14;98981.06;;;18.19;72.21
73016;BME280;61893;50.074;14.440;2022-09-06T00:44:39;98971.25;;;18.12;72.49
73016;BME280;61893;50.074;14.440;2022-09-06T00:47:06;98972.41;;;17.88;73.66
73016;BME280;61893;50.074;14.440;2022-09-06T00:49:37;98975.03;;;17.81;73.59
73016;BME280;61893;50.074;14.440;2022-09-06T00:52:08;98972.63;;;17.86;73.45
73016;BME280;61893;50.074;14.440;2022-09-06T00:54:35;98978.25;;;18.06;72.97
73016;BME280;61893;50.074;14.440;2022-09-06T00:57:02;98973.25;;;17.88;73.85
73016;BME280;61893;50.074;14.440;2022-09-06T00:59:30;98967.41;;;17.70;74.46
73016;BME280;61893;50.074;14.440;2022-09-06T01:01:57;98965.94;;;17.82;74.30
73016;BME280;61893;50.074;14.440;2022-09-06T01:04:24;98963.81;;;17.63;75.09
73016;BME280;61893;50.074;14.440;2022-09-06T01:07:16;98964.16;;;17.60;75.69
73016;BME280;61893;50.074;14.440;2022-09-06T01:13:18;98954.78;;;17.85;74.34
73016;BME280;61893;50.074;14.440;2022-09-06T01:28:56;98960.81;;;17.72;74.72
73016;BME280;61893;50.074;14.440;2022-09-06T01:31:29;98966.13;;;17.51;75.20
73016;BME280;61893;50.074;14.440;2022-09-06T01:34:13;98969.28;;;17.69;74.42
73016;BME280;61893;50.074;14.440;2022-09-06T01:39:33;98963.03;;;17.54;74.44
73016;BME280;61893;50.074;14.440;2022-09-06T01:42:16;98961.84;;;17.42;74.22
73016;BME280;61893;50.074;14.440;2022-09-06T01:44:44;98957.59;;;17.47;73.99
73016;BME280;61893;50.074;14.440;2022-09-06T01:47:20;98961.19;;;17.40;73.83
73016;BME280;61893;50.074;14.440;2022-09-06T02:01:02;98978.28;;;17.62;73.45
73016;BME280;61893;50.074;14.440;2022-09-06T02:03:41;98973.53;;;17.64;73.05
73016;BME280;61893;50.074;14.440;2022-09-06T02:06:17;98972.50;;;17.65;73.30
73016;BME280;61893;50.074;14.440;2022-09-06T02:08:47;98982.66;;;17.63;73.40
73016;BME280;61893;50.074;14.440;2022-09-06T02:11:16;98987.66;;;17.66;73.00
73016;BME280;61893;50.074;14.440;2022-09-06T02:13:58;98988.03;;;17.63;72.65
73016;BME280;61893;50.074;14.440;2022-09-06T02:16:29;98978.19;;;17.55;73.17
73016;BME280;61893;50.074;14.440;2022-09-06T02:19:15;98984.97;;;17.66;72.92
73016;BME280;61893;50.074;14.440;2022-09-06T02:21:45;98979.94;;;17.77;72.42
73016;BME280;61893;50.074;14.440;2022-09-06T02:24:16;98979.84;;;17.71;72.14
73016;BME280;61893;50.074;14.440;2022-09-06T02:26:45;98975.97;;;17.44;73.06
73016;BME280;61893;50.074;14.440;2022-09-06T02:29:12;98976.50;;;17.69;72.29
73016;BME280;61893;50.074;14.440;2022-09-06T02:31:42;98970.59;;;17.44;73.18
73016;BME280;61893;50.074;14.440;2022-09-06T02:34:13;98957.59;;;17.32;73.56
73016;BME280;61893;50.074;14.440;2022-09-06T02:36:40;98972.63;;;17.27;74.06
73016;BME280;61893;50.074;14.440;2022-09-06T02:39:05;98974.00;;;17.23;74.23
73016;BME280;61893;50.074;14.440;2022-09-06T02:41:32;98971.13;;;17.09;74.29
73016;BME280;61893;50.074;14.440;2022-09-06T02:43:57;98969.63;;;17.37;73.47
73016;BME280;61893;50.074;14.440;2022-09-06T02:46:23;98968.72;;;17.29;72.93
73016;BME280;61893;50.074;14.440;2022-09-06T02:48:50;98970.13;;;17.40;72.34
73016;BME280;61893;50.074;14.440;2022-09-06T02:51:18;98974.31;;;17.43;72.61
73016;BME280;61893;50.074;14.440;2022-09-06T02:53:43;98967.81;;;17.52;71.70
73016;BME280;61893;50.074;14.440;2022-09-06T02:56:09;98969.00;;;17.49;71.76
73016;BME280;61893;50.074;14.440;2022-09-06T02:58:35;98965.19;;;17.14;71.98
73016;BME280;61893;50.074;14.440;2022-09-06T03:01:01;98970.38;;;17.30;72.49
73016;BME280;61893;50.074;14.440;2022-09-06T03:03:27;98967.16;;;17.20;72.44
73016;BME280;61893;50.074;14.440;2022-09-06T03:05:54;98965.06;;;16.93;72.63
73016;BME280;61893;50.074;14.440;2022-09-06T03:08:21;98964.53;;;17.12;72.70
73016;BME280;61893;50.074;14.440;2022-09-06T03:10:54;98967.53;;;17.32;71.66
73016;BME280;61893;50.074;14.440;2022-09-06T03:13:22;98963.03;;;16.95;72.57
73016;BME280;61893;50.074;14.440;2022-09-06T03:15:53;98968.03;;;16.83;72.92
73016;BME280;61893;50.074;14.440;2022-09-06T03:18:19;98955.97;;;16.71;73.13
73016;BME280;61893;50.074;14.440;2022-09-06T03:20:48;98961.63;;;16.61;73.34
73016;BME280;61893;50.074;14.440;2022-09-06T03:23:14;98959.69;;;16.93;72.76
73016;BME280;61893;50.074;14.440;2022-09-06T03:25:41;98960.53;;;16.47;73.61
73016;BME280;61893;50.074;14.440;2022-09-06T03:28:07;98964.03;;;16.94;72.83
73016;BME280;61893;50.074;14.440;2022-09-06T03:30:35;98962.38;;;16.70;72.98
73016;BME280;61893;50.074;14.440;2022-09-06T03:33:01;98961.66;;;16.76;73.25
73016;BME280;61893;50.074;14.440;2022-09-06T03:35:27;98961.53;;;16.77;72.82
73016;BME280;61893;50.074;14.440;2022-09-06T03:37:52;98958.31;;;16.74;73.59
73016;BME280;61893;50.074;14.440;2022-09-06T03:40:18;98964.91;;;16.48;74.08
73016;BME280;61893;50.074;14.440;2022-09-06T03:42:44;98966.25;;;16.67;74.06
73016;BME280;61893;50.074;14.440;2022-09-06T03:45:11;98964.38;;;16.53;74.28
73016;BME280;61893;50.074;14.440;2022-09-06T03:47:37;98956.31;;;16.53;74.07
73016;BME280;61893;50.074;14.440;2022-09-06T03:50:04;98961.56;;;16.46;74.41
73016;BME280;61893;50.074;14.440;2022-09-06T03:52:29;98957.28;;;16.37;74.68
73016;BME280;61893;50.074;14.440;2022-09-06T03:54:56;98956.56;;;16.43;74.55
73016;BME280;61893;50.074;14.440;2022-09-06T03:57:21;98951.56;;;16.40;74.65
73016;BME280;61893;50.074;14.440;2022-09-06T03:59:48;98954.66;;;16.29;74.92
73016;BME280;61893;50.074;14.440;2022-09-06T04:02:13;98956.78;;;16.33;75.40
73016;BME280;61893;50.074;14.440;2022-09-06T04:04:39;98958.75;;;16.16;75.57
73016;BME280;61893;50.074;14.440;2022-09-06T04:07:05;98967.34;;;16.12;75.67
73016;BME280;61893;50.074;14.440;2022-09-06T04:09:31;98967.00;;;16.15;75.86
73016;BME280;61893;50.074;14.440;2022-09-06T04:11:57;98965.50;;;16.12;75.86
73016;BME280;61893;50.074;14.440;2022-09-06T04:14:22;98972.53;;;16.13;76.01
73016;BME280;61893;50.074;14.440;2022-09-06T04:16:48;98980.47;;;16.07;76.46
73016;BME280;61893;50.074;14.440;2022-09-06T04:19:14;98971.28;;;16.24;76.05
73016;BME280;61893;50.074;14.440;2022-09-06T04:21:40;98965.81;;;16.17;76.21
73016;BME280;61893;50.074;14.440;2022-09-06T04:24:06;98960.91;;;16.21;75.76
73016;BME280;61893;50.074;14.440;2022-09-06T04:26:32;98960.00;;;15.74;76.95
73016;BME280;61893;50.074;14.440;2022-09-06T04:28:58;98966.63;;;15.87;77.34
73016;BME280;61893;50.074;14.440;2022-09-06T04:31:30;98967.03;;;15.75;77.24
73016;BME280;61893;50.074;14.440;2022-09-06T04:33:58;98963.91;;;15.95;76.82
73016;BME280;61893;50.074;14.440;2022-09-06T04:36:23;98961.50;;;16.08;76.03
73016;BME280;61893;50.074;14.440;2022-09-06T04:38:50;98959.28;;;16.12;75.91
73016;BME280;61893;50.074;14.440;2022-09-06T04:41:16;98945.31;;;16.16;75.33
73016;BME280;61893;50.074;14.440;2022-09-06T04:43:43;98955.69;;;16.19;75.58
73016;BME280;61893;50.074;14.440;2022-09-06T04:46:25;98941.94;;;15.99;76.38
73016;BME280;61893;50.074;14.440;2022-09-06T04:48:53;98942.06;;;15.75;77.26
73016;BME280;61893;50.074;14.440;2022-09-06T04:51:20;98950.41;;;15.80;77.44
73016;BME280;61893;50.074;14.440;2022-09-06T04:53:46;98951.13;;;15.74;77.47
73016;BME280;61893;50.074;14.440;2022-09-06T04:56:15;98946.78;;;15.96;76.81
73016;BME280;61893;50.074;14.440;2022-09-06T04:58:43;98954.16;;;15.71;77.29
73016;BME280;61893;50.074;14.440;2022-09-06T05:01:09;98952.59;;;15.76;77.33
73016;BME280;61893;50.074;14.440;2022-09-06T05:03:35;98958.06;;;15.44;78.09
73016;BME280;61893;50.074;14.440;2022-09-06T05:06:12;98950.78;;;15.77;77.47
73016;BME280;61893;50.074;14.440;2022-09-06T05:08:39;98957.69;;;15.55;77.73
73016;BME280;61893;50.074;14.440;2022-09-06T05:11:06;98956.63;;;15.81;76.84
73016;BME280;61893;50.074;14.440;2022-09-06T05:13:33;98953.88;;;15.49;77.84
73016;BME280;61893;50.074;14.440;2022-09-06T05:16:00;98956.72;;;15.48;77.94
73016;BME280;61893;50.074;14.440;2022-09-06T05:18:27;98958.06;;;15.52;77.87
73016;BME280;61893;50.074;14.440;2022-09-06T05:20:53;98961.09;;;15.49;77.92
73016;BME280;61893;50.074;14.440;2022-09-06T05:23:20;98957.72;;;15.47;77.77
73016;BME280;61893;50.074;14.440;2022-09-06T05:25:48;98969.50;;;15.38;78.20
73016;BME280;61893;50.074;14.440;2022-09-06T05:28:14;98968.22;;;15.73;77.31
73016;BME280;61893;50.074;14.440;2022-09-06T05:30:44;98970.94;;;15.96;75.94
73016;BME280;61893;50.074;14.440;2022-09-06T05:33:12;98966.56;;;15.64;76.82
73016;BME280;61893;50.074;14.440;2022-09-06T05:35:41;98967.16;;;15.82;76.31
73016;BME280;61893;50.074;14.440;2022-09-06T05:38:07;98964.53;;;15.74;76.62
73016;BME280;61893;50.074;14.440;2022-09-06T05:40:35;98963.69;;;16.05;75.65
73016;BME280;61893;50.074;14.440;2022-09-06T05:43:06;98960.91;;;15.90;75.53
73016;BME280;61893;50.074;14.440;2022-09-06T05:45:58;98965.56;;;15.96;76.00
73016;BME280;61893;50.074;14.440;2022-09-06T05:49:03;98957.84;;;16.01;75.70
73016;BME280;61893;50.074;14.440;2022-09-06T05:51:33;98952.44;;;16.32;74.54
73016;BME280;61893;50.074;14.440;2022-09-06T05:54:28;98950.22;;;16.36;74.67
73016;BME280;61893;50.074;14.440;2022-09-06T05:56:54;98955.09;;;16.09;74.87
73016;BME280;61893;50.074;14.440;2022-09-06T06:00:13;98969.19;;;16.11;74.86
73016;BME280;61893;50.074;14.440;2022-09-06T06:03:13;98958.94;;;16.61;72.78
73016;BME280;61893;50.074;14.440;2022-09-06T06:05:45;98956.00;;;16.48;73.00
73016;BME280;61893;50.074;14.440;2022-09-06T06:08:12;98950.59;;;16.33;73.88
73016;BME280;61893;50.074;14.440;2022-09-06T06:10:41;98954.16;;;16.48;73.38
73016;BME280;61893;50.074;14.440;2022-09-06T06:13:16;98954.59;;;16.83;73.05
73016;BME280;61893;50.074;14.440;2022-09-06T06:15:43;98959.66;;;16.78;72.40
73016;BME280;61893;50.074;14.440;2022-09-06T06:18:21;98960.66;;;16.54;73.02
73016;BME280;61893;50.074;14.440;2022-09-06T06:21:25;98965.19;;;16.76;72.61
73016;BME280;61893;50.074;14.440;2022-09-06T06:24:03;98971.59;;;16.52;72.95
73016;BME280;61893;50.074;14.440;2022-09-06T06:26:32;98967.00;;;16.84;71.94
73016;BME280;61893;50.074;14.440;2022-09-06T06:29:14;98972.28;;;16.92;71.48
73016;BME280;61893;50.074;14.440;2022-09-06T06:32:00;98962.59;;;17.06;70.95
73016;BME280;61893;50.074;14.440;2022-09-06T06:35:16;98966.03;;;17.29;70.09
73016;BME280;61893;50.074;14.440;2022-09-06T06:37:43;98966.31;;;17.20;69.70
73016;BME280;61893;50.074;14.440;2022-09-06T06:40:20;98961.19;;;17.40;69.68
73016;BME280;61893;50.074;14.440;2022-09-06T06:43:04;98961.41;;;17.38;69.12
73016;BME280;61893;50.074;14.440;2022-09-06T06:45:30;98954.06;;;17.62;68.45
73016;BME280;61893;50.074;14.440;2022-09-06T06:48:14;98954.81;;;17.41;68.32
73016;BME280;61893;50.074;14.440;2022-09-06T06:50:41;98962.03;;;17.55;67.69
73016;BME280;61893;50.074;14.440;2022-09-06T06:53:50;98960.38;;;17.84;66.78
73016;BME280;61893;50.074;14.440;2022-09-06T06:56:53;98968.47;;;18.05;66.78
73016;BME280;61893;50.074;14.440;2022-09-06T06:59:19;98960.88;;;17.94;65.33
73016;BME280;61893;50.074;14.440;2022-09-06T07:01:55;98955.72;;;17.92;65.58
73016;BME280;61893;50.074;14.440;2022-09-06T07:04:59;98951.22;;;17.99;64.60
73016;BME280;61893;50.074;14.440;2022-09-06T07:07:39;98958.75;;;18.26;64.64
73016;BME280;61893;50.074;14.440;2022-09-06T07:10:41;98962.88;;;18.21;63.72
73016;BME280;61893;50.074;14.440;2022-09-06T07:13:58;98967.41;;;18.42;64.35
73016;BME280;61893;50.074;14.440;2022-09-06T07:16:32;98967.31;;;18.29;64.36
73016;BME280;61893;50.074;14.440;2022-09-06T07:19:15;98964.28;;;18.39;63.81
73016;BME280;61893;50.074;14.440;2022-09-06T07:22:37;98959.09;;;18.37;64.77
73016;BME280;61893;50.074;14.440;2022-09-06T07:25:09;98957.75;;;18.69;63.56
73016;BME280;61893;50.074;14.440;2022-09-06T07:27:38;98955.19;;;18.83;62.61
73016;BME280;61893;50.074;14.440;2022-09-06T07:30:04;98955.00;;;18.63;63.78
73016;BME280;61893;50.074;14.440;2022-09-06T07:32:53;98946.94;;;18.91;62.62
73016;BME280;61893;50.074;14.440;2022-09-06T07:35:33;98948.69;;;19.05;62.14
73016;BME280;61893;50.074;14.440;2022-09-06T07:38:19;98953.50;;;19.45;61.35
73016;BME280;61893;50.074;14.440;2022-09-06T07:40:56;98949.47;;;19.27;61.41
73016;BME280;61893;50.074;14.440;2022-09-06T07:43:45;98948.53;;;19.42;61.76
73016;BME280;61893;50.074;14.440;2022-09-06T07:57:48;98943.94;;;19.77;59.81
73016;BME280;61893;50.074;14.440;2022-09-06T08:01:24;98941.88;;;19.86;59.93
73016;BME280;61893;50.074;14.440;2022-09-06T08:04:18;98939.34;;;19.71;59.97
73016;BME280;61893;50.074;14.440;2022-09-06T08:07:33;98933.34;;;19.75;59.83
73016;BME280;61893;50.074;14.440;2022-09-06T08:10:58;98940.78;;;19.67;59.97
73016;BME280;61893;50.074;14.440;2022-09-06T08:13:51;98940.72;;;19.60;59.62
73016;BME280;61893;50.074;14.440;2022-09-06T08:17:07;98945.84;;;19.48;59.34
73016;BME280;61893;50.074;14.440;2022-09-06T08:20:02;98944.56;;;19.72;58.94
73016;BME280;61893;50.074;14.440;2022-09-06T08:23:18;98949.84;;;19.52;59.94
73016;BME280;61893;50.074;14.440;2022-09-06T08:26:08;98955.47;;;19.57;59.15
73016;BME280;61893;50.074;14.440;2022-09-06T08:28:38;98945.84;;;19.83;58.70
73016;BME280;61893;50.074;14.440;2022-09-06T08:31:16;98952.16;;;20.03;58.27
73016;BME280;61893;50.074;14.440;2022-09-06T08:33:47;98954.63;;;20.05;58.57
73016;BME280;61893;50.074;14.440;2022-09-06T08:36:19;98949.41;;;19.97;58.82
73016;BME280;61893;50.074;14.440;2022-09-06T08:38:46;98951.56;;;20.28;57.97
73016;BME280;61893;50.074;14.440;2022-09-06T08:44:10;98949.22;;;19.98;58.45
73016;BME280;61893;50.074;14.440;2022-09-06T08:46:40;98949.81;;;19.87;58.82
73016;BME280;61893;50.074;14.440;2022-09-06T08:49:10;98948.41;;;20.05;59.49
73016;BME280;61893;50.074;14.440;2022-09-06T08:57:56;98960.13;;;20.38;58.60
73016;BME280;61893;50.074;14.440;2022-09-06T09:00:26;98956.16;;;20.28;56.62
73016;BME280;61893;50.074;14.440;2022-09-06T09:05:32;98952.63;;;20.34;56.48
73016;BME280;61893;50.074;14.440;2022-09-06T09:08:22;98947.84;;;20.29;57.21
73016;BME280;61893;50.074;14.440;2022-09-06T09:13:50;98945.34;;;20.28;56.77
73016;BME280;61893;50.074;14.440;2022-09-06T09:16:20;98938.34;;;20.53;56.23
73016;BME280;61893;50.074;14.440;2022-09-06T09:18:51;98938.97;;;20.62;55.60
73016;BME280;61893;50.074;14.440;2022-09-06T09:21:42;98934.81;;;20.73;55.53
73016;BME280;61893;50.074;14.440;2022-09-06T09:24:20;98935.44;;;20.88;55.55
73016;BME280;61893;50.074;14.440;2022-09-06T09:26:56;98929.19;;;20.74;55.91
73016;BME280;61893;50.074;14.440;2022-09-06T09:29:28;98923.97;;;20.99;54.65
73016;BME280;61893;50.074;14.440;2022-09-06T09:31:56;98918.38;;;20.74;55.69
73016;BME280;61893;50.074;14.440;2022-09-06T09:34:36;98905.47;;;20.96;55.68
73016;BME280;61893;50.074;14.440;2022-09-06T09:37:23;98901.44;;;21.25;55.84
73016;BME280;61893;50.074;14.440;2022-09-06T09:40:06;98895.09;;;21.65;54.06
73016;BME280;61893;50.074;14.440;2022-09-06T09:49:07;98893.00;;;22.05;52.67
73016;BME280;61893;50.074;14.440;2022-09-06T09:51:57;98893.84;;;22.05;52.77
73016;BME280;61893;50.074;14.440;2022-09-06T09:54:39;98897.13;;;21.76;53.44
73016;BME280;61893;50.074;14.440;2022-09-06T09:57:45;98890.09;;;22.07;52.76
73016;BME280;61893;50.074;14.440;2022-09-06T10:00:35;98890.91;;;21.75;52.13
73016;BME280;61893;50.074;14.440;2022-09-06T10:03:15;98886.66;;;21.28;53.38
73016;BME280;61893;50.074;14.440;2022-09-06T10:05:53;98884.31;;;21.51;53.52
73016;BME280;61893;50.074;14.440;2022-09-06T10:08:22;98886.94;;;21.71;53.11
73016;BME280;61893;50.074;14.440;2022-09-06T10:10:53;98877.13;;;22.15;52.37
73016;BME280;61893;50.074;14.440;2022-09-06T10:13:25;98879.72;;;22.35;51.32
73016;BME280;61893;50.074;14.440;2022-09-06T10:16:06;98880.56;;;22.61;51.64
73016;BME280;61893;50.074;14.440;2022-09-06T10:18:53;98879.88;;;22.65;50.26
73016;BME280;61893;50.074;14.440;2022-09-06T10:21:25;98874.03;;;23.12;49.80
73016;BME280;61893;50.074;14.440;2022-09-06T10:24:36;98865.22;;;22.48;51.06
73016;BME280;61893;50.074;14.440;2022-09-06T10:27:22;98870.41;;;22.75;50.35
73016;BME280;61893;50.074;14.440;2022-09-06T10:29:57;98872.09;;;23.01;50.48
73016;BME280;61893;50.074;14.440;2022-09-06T10:39:02;98871.06;;;22.20;51.52
73016;BME280;61893;50.074;14.440;2022-09-06T10:47:57;98860.69;;;22.67;51.95
73016;BME280;61893;50.074;14.440;2022-09-06T10:53:45;98852.50;;;22.92;50.85
73016;BME280;61893;50.074;14.440;2022-09-06T10:56:28;98848.72;;;23.18;49.57
73016;BME280;61893;50.074;14.440;2022-09-06T10:59:11;98845.91;;;23.06;50.50
73016;BME280;61893;50.074;14.440;2022-09-06T11:01:44;98846.75;;;23.25;49.72
73016;BME280;61893;50.074;14.440;2022-09-06T11:04:31;98853.25;;;23.24;49.89
73016;BME280;61893;50.074;14.440;2022-09-06T11:09:50;98852.84;;;23.39;49.50
73016;BME280;61893;50.074;14.440;2022-09-06T11:16:12;98861.81;;;24.07;48.15
73016;BME280;61893;50.074;14.440;2022-09-06T11:19:18;98838.03;;;24.44;48.27
73016;BME280;61893;50.074;14.440;2022-09-06T11:25:39;98824.63;;;24.42;47.37
73016;BME280;61893;50.074;14.440;2022-09-06T11:28:14;98818.75;;;24.69;46.83
73016;BME280;61893;50.074;14.440;2022-09-06T11:31:04;98808.44;;;24.83;47.16
73016;BME280;61893;50.074;14.440;2022-09-06T11:34:22;98810.84;;;24.67;46.67
73016;BME280;61893;50.074;14.440;2022-09-06T11:36:57;98801.00;;;24.90;46.30
73016;BME280;61893;50.074;14.440;2022-09-06T11:39:44;98800.25;;;25.18;46.17
73016;BME280;61893;50.074;14.440;2022-09-06T11:51:07;98794.00;;;24.82;46.69
73016;BME280;61893;50.074;14.440;2022-09-06T12:07:31;98772.59;;;26.12;44.22
73016;BME280;61893;50.074;14.440;2022-09-06T12:10:30;98765.72;;;26.10;43.57
73016;BME280;61893;50.074;14.440;2022-09-06T12:12:49;98765.06;;;26.70;43.25
73016;BME280;61893;50.074;14.440;2022-09-06T12:15:28;98759.22;;;26.61;43.76
73016;BME280;61893;50.074;14.440;2022-09-06T12:17:58;98761.47;;;26.69;43.05
73016;BME280;61893;50.074;14.440;2022-09-06T12:23:39;98748.94;;;26.01;44.43
73016;BME280;61893;50.074;14.440;2022-09-06T12:26:11;98753.25;;;26.86;42.62
73016;BME280;61893;50.074;14.440;2022-09-06T12:28:48;98745.97;;;26.36;44.27
73016;BME280;61893;50.074;14.440;2022-09-06T12:31:37;98753.78;;;26.49;43.19
73016;BME280;61893;50.074;14.440;2022-09-06T12:34:18;98751.56;;;26.46;44.00
73016;BME280;61893;50.074;14.440;2022-09-06T12:37:04;98743.28;;;26.97;43.07
73016;BME280;61893;50.074;14.440;2022-09-06T12:39:36;98736.22;;;26.23;44.21
73016;BME280;61893;50.074;14.440;2022-09-06T12:42:10;98742.31;;;26.86;42.75
73016;BME280;61893;50.074;14.440;2022-09-06T12:44:47;98730.41;;;27.36;42.15
73016;BME280;61893;50.074;14.440;2022-09-06T12:47:27;98727.47;;;27.43;41.54
73016;BME280;61893;50.074;14.440;2022-09-06T12:53:37;98717.13;;;27.01;42.19
73016;BME280;61893;50.074;14.440;2022-09-06T12:56:12;98721.91;;;27.33;41.94
73016;BME280;61893;50.074;14.440;2022-09-06T12:58:45;98718.47;;;26.77;42.58
73016;BME280;61893;50.074;14.440;2022-09-06T13:01:25;98714.59;;;27.98;39.98
73016;BME280;61893;50.074;14.440;2022-09-06T13:04:13;98714.72;;;28.13;39.61
73016;BME280;61893;50.074;14.440;2022-09-06T13:06:51;98702.88;;;28.02;40.59
73016;BME280;61893;50.074;14.440;2022-09-06T13:09:21;98707.59;;;27.26;42.01
73016;BME280;61893;50.074;14.440;2022-09-06T13:12:02;98703.63;;;27.66;40.88
73016;BME280;61893;50.074;14.440;2022-09-06T13:14:53;98709.06;;;27.33;41.37
73016;BME280;61893;50.074;14.440;2022-09-06T13:17:25;98700.72;;;28.42;39.58
73016;BME280;61893;50.074;14.440;2022-09-06T13:19:56;98703.50;;;28.15;40.20
73016;BME280;61893;50.074;14.440;2022-09-06T13:22:46;98703.56;;;27.60;41.52
73016;BME280;61893;50.074;14.440;2022-09-06T13:26:10;98704.97;;;28.27;40.16
73016;BME280;61893;50.074;14.440;2022-09-06T13:28:49;98703.00;;;29.23;37.63
73016;BME280;61893;50.074;14.440;2022-09-06T13:31:20;98700.66;;;28.89;38.35
73016;BME280;61893;50.074;14.440;2022-09-06T13:33:57;98706.00;;;29.22;38.40
73016;BME280;61893;50.074;14.440;2022-09-06T13:36:29;98704.41;;;29.41;37.24
73016;BME280;61893;50.074;14.440;2022-09-06T13:38:59;98702.25;;;28.33;38.78
73016;BME280;61893;50.074;14.440;2022-09-06T13:46:36;98702.84;;;29.86;36.50
73016;BME280;61893;50.074;14.440;2022-09-06T13:49:02;98699.25;;;29.75;36.70
73016;BME280;61893;50.074;14.440;2022-09-06T13:51:28;98701.25;;;28.44;38.85
73016;BME280;61893;50.074;14.440;2022-09-06T13:54:05;98710.09;;;28.61;39.00
73016;BME280;61893;50.074;14.440;2022-09-06T13:56:32;98706.31;;;27.60;40.93
73016;BME280;61893;50.074;14.440;2022-09-06T13:59:13;98697.06;;;27.67;40.24
73016;BME280;61893;50.074;14.440;2022-09-06T14:01:44;98703.06;;;27.14;41.93
73016;BME280;61893;50.074;14.440;2022-09-06T14:04:13;98701.31;;;26.42;42.26
73016;BME280;61893;50.074;14.440;2022-09-06T14:06:54;98700.88;;;26.89;41.87
73016;BME280;61893;50.074;14.440;2022-09-06T14:09:20;98707.00;;;26.41;43.09
73016;BME280;61893;50.074;14.440;2022-09-06T14:11:46;98709.00;;;27.06;41.55
73016;BME280;61893;50.074;14.440;2022-09-06T14:14:13;98698.31;;;26.61;41.91
73016;BME280;61893;50.074;14.440;2022-09-06T14:16:40;98699.84;;;26.95;41.18
73016;BME280;61893;50.074;14.440;2022-09-06T14:19:09;98694.38;;;26.95;41.51
73016;BME280;61893;50.074;14.440;2022-09-06T14:21:35;98698.69;;;27.35;39.86
73016;BME280;61893;50.074;14.440;2022-09-06T14:24:39;98698.44;;;27.15;41.20
73016;BME280;61893;50.074;14.440;2022-09-06T14:27:20;98702.97;;;26.82;42.36
73016;BME280;61893;50.074;14.440;2022-09-06T14:29:47;98700.38;;;26.15;43.15
73016;BME280;61893;50.074;14.440;2022-09-06T14:32:16;98699.47;;;25.92;43.94
73016;BME280;61893;50.074;14.440;2022-09-06T14:34:52;98696.84;;;25.52;45.62
73016;BME280;61893;50.074;14.440;2022-09-06T14:37:41;98696.88;;;25.11;46.55
73016;BME280;61893;50.074;14.440;2022-09-06T14:40:15;98697.97;;;25.10;46.23
73016;BME280;61893;50.074;14.440;2022-09-06T14:42:41;98685.41;;;25.09;46.53
73016;BME280;61893;50.074;14.440;2022-09-06T14:45:07;98681.53;;;25.05;46.49
73016;BME280;61893;50.074;14.440;2022-09-06T14:47:51;98688.31;;;24.91;47.21
73016;BME280;61893;50.074;14.440;2022-09-06T14:50:20;98681.84;;;24.80;47.23
73016;BME280;61893;50.074;14.440;2022-09-06T14:52:46;98692.66;;;24.40;47.39
73016;BME280;61893;50.074;14.440;2022-09-06T14:55:12;98688.19;;;24.45;47.52
73016;BME280;61893;50.074;14.440;2022-09-06T14:57:41;98684.28;;;24.30;48.17
73016;BME280;61893;50.074;14.440;2022-09-06T15:00:07;98676.84;;;24.13;48.90
73016;BME280;61893;50.074;14.440;2022-09-06T15:02:40;98677.88;;;24.12;49.49
73016;BME280;61893;50.074;14.440;2022-09-06T15:05:39;98687.59;;;23.96;49.65
73016;BME280;61893;50.074;14.440;2022-09-06T15:08:37;98681.78;;;23.81;50.59
73016;BME280;61893;50.074;14.440;2022-09-06T15:11:57;98686.31;;;23.69;50.27
73016;BME280;61893;50.074;14.440;2022-09-06T15:14:26;98683.25;;;23.65;50.92
73016;BME280;61893;50.074;14.440;2022-09-06T15:16:55;98683.94;;;23.60;50.75
73016;BME280;61893;50.074;14.440;2022-09-06T15:19:24;98696.25;;;23.63;50.13
73016;BME280;61893;50.074;14.440;2022-09-06T15:21:52;98687.13;;;23.57;50.92
73016;BME280;61893;50.074;14.440;2022-09-06T15:24:18;98698.72;;;23.53;50.82
73016;BME280;61893;50.074;14.440;2022-09-06T15:26:44;98696.31;;;23.45;51.62
73016;BME280;61893;50.074;14.440;2022-09-06T15:29:22;98688.84;;;23.40;52.48
73016;BME280;61893;50.074;14.440;2022-09-06T15:31:48;98682.78;;;23.26;52.56
73016;BME280;61893;50.074;14.440;2022-09-06T15:34:16;98688.09;;;23.21;53.54
73016;BME280;61893;50.074;14.440;2022-09-06T15:36:42;98691.00;;;23.08;54.97